createdAt,value
2023-04-29T05:01:08.649Z,99869.03
2023-04-29T05:03:35.878Z,99870.78
2023-04-29T05:06:03.389Z,99876.09
2023-04-29T05:08:30.426Z,99877.81
2023-04-29T05:10:59.886Z,99874.22
2023-04-29T05:13:26.842Z,99872.34
2023-04-29T05:15:54.258Z,99886.47
2023-04-29T05:18:25.871Z,99894.53
2023-04-29T05:20:53.045Z,99891.81
2023-04-29T05:23:20.065Z,99897.19
2023-04-29T05:25:47.596Z,99899.00
2023-04-29T05:28:16.521Z,99899.00
2023-04-29T05:30:45.271Z,99903.41
2023-04-29T05:33:12.477Z,99913.97
2023-04-29T05:35:39.953Z,99907.91
2023-04-29T05:38:06.843Z,99918.56
2023-04-29T05:40:40.747Z,99915.25
2023-04-29T05:43:36.959Z,99916.97
2023-04-29T05:46:04.825Z,99916.97
2023-04-29T05:48:31.397Z,99924.03
2023-04-29T05:50:58.808Z,99929.38
2023-04-29T05:53:25.930Z,99923.91
2023-04-29T05:55:53.372Z,99941.59
2023-04-29T05:58:21.420Z,99930.81
2023-04-29T06:00:49.630Z,99934.41
2023-04-29T06:03:21.564Z,99937.03
2023-04-29T06:05:54.742Z,99947.69
2023-04-29T06:08:48.281Z,99947.78
2023-04-29T06:11:19.994Z,99961.03
2023-04-29T06:13:46.734Z,99968.09
2023-04-29T06:16:15.618Z,99970.84
2023-04-29T06:18:42.348Z,99973.56
2023-04-29T06:21:09.666Z,99979.69
2023-04-29T06:23:36.458Z,99974.31
2023-04-29T06:26:10.852Z,99979.56
2023-04-29T06:28:37.540Z,99985.81
2023-04-29T06:31:05.283Z,99987.53
2023-04-29T06:33:34.053Z,99992.06
2023-04-29T06:36:01.442Z,99995.66
2023-04-29T06:38:54.040Z,100001.81
2023-04-29T06:41:47.659Z,100005.28
2023-04-29T06:44:43.828Z,100003.25
2023-04-29T06:47:34.888Z,100022.69
2023-04-29T06:50:11.991Z,100019.13
2023-04-29T06:52:38.959Z,100013.66
2023-04-29T06:55:06.858Z,100026.91
2023-04-29T06:57:34.133Z,100026.78
2023-04-29T07:00:00.880Z,100031.22
2023-04-29T07:02:28.220Z,100040.03
2023-04-29T07:04:55.439Z,100037.38
2023-04-29T07:07:23.333Z,100039.97
2023-04-29T07:09:52.636Z,100040.69
2023-04-29T07:12:20.753Z,100047.84
2023-04-29T07:14:47.858Z,100044.97
2023-04-29T07:17:15.168Z,100049.22
2023-04-29T07:19:42.514Z,100056.09
2023-04-29T07:22:10.892Z,100057.75
2023-04-29T07:24:37.577Z,100061.22
2023-04-29T07:27:04.938Z,100067.22
2023-04-29T07:29:31.632Z,100072.44
2023-04-29T07:31:58.877Z,100073.91
2023-04-29T07:34:26.750Z,100079.84
2023-04-29T07:36:54.025Z,100076.19
2023-04-29T07:39:20.861Z,100089.63
2023-04-29T07:41:55.363Z,100089.28
2023-04-29T07:44:22.376Z,100089.75
2023-04-29T07:46:49.645Z,100099.22
2023-04-29T07:49:16.725Z,100102.28
2023-04-29T07:51:45.668Z,100093.63
2023-04-29T07:54:12.301Z,100102.69
2023-04-29T07:56:39.507Z,100110.63
2023-04-29T07:59:07.409Z,100109.41
2023-04-29T08:01:34.909Z,100121.47
2023-04-29T08:04:01.774Z,100113.19
2023-04-29T08:06:29.577Z,100115.63
2023-04-29T08:08:56.520Z,100126.16
2023-04-29T08:11:24.716Z,100121.19
2023-04-29T08:13:51.285Z,100129.03
2023-04-29T08:16:18.776Z,100141.44
2023-04-29T08:18:45.415Z,100131.50
2023-04-29T08:21:12.579Z,100132.22
2023-04-29T08:23:40.318Z,100141.78
2023-04-29T08:26:07.260Z,100146.22
2023-04-29T08:28:33.845Z,100150.69
2023-04-29T08:31:01.093Z,100160.38
2023-04-29T08:33:27.677Z,100164.31
2023-04-29T08:36:04.124Z,100164.13
2023-04-29T08:38:31.072Z,100163.69
2023-04-29T08:40:58.742Z,100167.75
2023-04-29T08:43:26.681Z,100170.81
2023-04-29T08:45:54.535Z,100171.56
2023-04-29T08:48:21.997Z,100171.66
2023-04-29T08:50:49.295Z,100174.53
2023-04-29T08:53:15.957Z,100172.66
2023-04-29T08:55:48.551Z,100179.47
2023-04-29T08:58:16.383Z,100179.59
2023-04-29T09:00:44.843Z,100183.06
2023-04-29T09:03:26.916Z,100190.88
2023-04-29T09:05:56.451Z,100196.81
2023-04-29T09:08:24.344Z,100192.38
2023-04-29T09:10:53.102Z,100186.38
2023-04-29T09:13:27.261Z,100185.13
2023-04-29T09:15:54.809Z,100193.63
2023-04-29T09:18:44.766Z,100192.47
2023-04-29T09:21:19.072Z,100191.38
2023-04-29T09:23:48.984Z,100195.06
2023-04-29T09:26:16.900Z,100196.91
2023-04-29T09:28:45.043Z,100203.19
2023-04-29T09:31:12.868Z,100202.31
2023-04-29T09:33:57.069Z,100208.13
2023-04-29T09:36:41.140Z,100202.22
2023-04-29T09:39:15.568Z,100208.84
2023-04-29T09:41:54.249Z,100208.59
2023-04-29T09:44:27.533Z,100207.69
2023-04-29T09:47:03.135Z,100210.84
2023-04-29T09:49:36.137Z,100215.88
2023-04-29T09:52:08.064Z,100221.38
2023-04-29T09:54:37.159Z,100229.88
2023-04-29T09:57:07.401Z,100235.94
2023-04-29T09:59:36.489Z,100232.06
2023-04-29T10:02:11.895Z,100239.47
2023-04-29T10:04:41.110Z,100236.34
2023-04-29T10:07:09.302Z,100239.63
2023-04-29T10:09:39.480Z,100242.44
2023-04-29T10:12:07.444Z,100251.78
2023-04-29T10:14:43.084Z,100246.09
2023-04-29T10:17:26.807Z,100246.66
2023-04-29T10:20:06.822Z,100250.03
2023-04-29T10:22:45.924Z,100247.34
2023-04-29T10:25:15.451Z,100249.38
2023-04-29T10:27:46.097Z,100245.63
2023-04-29T10:30:20.369Z,100238.72
2023-04-29T10:32:52.133Z,100242.09
2023-04-29T10:35:26.052Z,100252.19
2023-04-29T10:37:54.159Z,100251.16
2023-04-29T10:40:46.978Z,100250.13
2023-04-29T10:43:13.768Z,100253.56
2023-04-29T10:45:40.892Z,100256.00
2023-04-29T10:48:13.051Z,100250.94
2023-04-29T10:50:49.549Z,100251.25
2023-04-29T10:53:25.494Z,100246.88
2023-04-29T10:55:59.508Z,100243.00
2023-04-29T10:58:39.219Z,100258.41
2023-04-29T11:01:08.218Z,100256.09
2023-04-29T11:03:49.500Z,100257.75
2023-04-29T11:06:16.701Z,100258.41
2023-04-29T11:08:43.669Z,100258.44
2023-04-29T11:11:10.440Z,100255.25
2023-04-29T11:13:40.738Z,100261.34
2023-04-29T11:16:09.983Z,100258.66
2023-04-29T11:18:57.599Z,100255.19
2023-04-29T11:21:24.181Z,100268.34
2023-04-29T11:23:52.530Z,100265.56
2023-04-29T11:26:22.867Z,100258.31
2023-04-29T11:28:52.332Z,100262.81
2023-04-29T11:31:19.061Z,100264.34
2023-04-29T11:33:47.414Z,100262.09
2023-04-29T11:36:14.312Z,100263.94
2023-04-29T11:38:42.013Z,100263.19
2023-04-29T11:41:11.418Z,100265.25
2023-04-29T11:43:39.756Z,100272.53
2023-04-29T11:46:15.958Z,100265.25
2023-04-29T11:48:47.944Z,100272.59
2023-04-29T11:51:19.381Z,100280.59
2023-04-29T11:53:46.521Z,100286.22
2023-04-29T11:56:13.956Z,100288.72
2023-04-29T11:58:43.154Z,100296.78
2023-04-29T12:01:10.705Z,100294.47
2023-04-29T12:03:37.597Z,100302.50
2023-04-29T12:06:06.641Z,100296.72
2023-04-29T12:08:34.959Z,100299.31
2023-04-29T12:11:02.143Z,100305.88
2023-04-29T12:13:30.565Z,100309.16
2023-04-29T12:15:59.206Z,100297.75
2023-04-29T12:18:27.732Z,100298.78
2023-04-29T12:20:58.360Z,100301.53
2023-04-29T12:23:28.735Z,100295.84
2023-04-29T12:26:00.898Z,100298.94
2023-04-29T12:28:27.626Z,100299.25
2023-04-29T12:30:56.905Z,100297.28
2023-04-29T12:33:28.776Z,100299.63
2023-04-29T12:35:58.240Z,100299.53
2023-04-29T12:38:31.059Z,100291.13
2023-04-29T12:41:05.434Z,100297.28
2023-04-29T12:43:36.716Z,100309.84
2023-04-29T12:46:08.610Z,100303.75
2023-04-29T12:48:41.824Z,100306.63
2023-04-29T12:51:10.111Z,100309.84
2023-04-29T12:53:38.054Z,100305.63
2023-04-29T12:56:08.046Z,100301.88
2023-04-29T12:58:35.323Z,100308.38
2023-04-29T13:01:02.646Z,100313.50
2023-04-29T13:03:29.519Z,100313.56
2023-04-29T13:05:57.574Z,100323.25
2023-04-29T13:08:24.281Z,100321.81
2023-04-29T13:10:51.876Z,100319.97
2023-04-29T13:13:18.521Z,100323.88
2023-04-29T13:15:45.737Z,100321.00
2023-04-29T13:18:12.410Z,100319.28
2023-04-29T13:20:42.221Z,100329.41
2023-04-29T13:23:10.088Z,100333.06
2023-04-29T13:25:37.323Z,100326.91
2023-04-29T13:28:05.431Z,100322.31
2023-04-29T13:30:33.481Z,100323.00
2023-04-29T13:33:07.943Z,100325.75
2023-04-29T13:35:39.974Z,100329.94
2023-04-29T13:38:07.950Z,100332.88
2023-04-29T13:40:38.726Z,100335.53
2023-04-29T13:43:09.950Z,100337.38
2023-04-29T13:45:41.266Z,100333.44
2023-04-29T13:48:25.935Z,100336.28
2023-04-29T13:51:45.060Z,100325.72
2023-04-29T13:54:38.256Z,100329.53
2023-04-29T14:04:01.880Z,100335.44
2023-04-29T14:06:28.922Z,100334.00
2023-04-29T14:08:56.193Z,100335.63
2023-04-29T14:11:22.811Z,100336.47
2023-04-29T14:13:50.187Z,100334.72
2023-04-29T14:16:17.369Z,100341.59
2023-04-29T14:18:44.020Z,100344.44
2023-04-29T14:21:11.576Z,100346.09
2023-04-29T14:23:38.309Z,100353.03
2023-04-29T14:26:23.025Z,100349.09
2023-04-29T14:28:57.982Z,100345.97
2023-04-29T14:31:29.230Z,100352.22
2023-04-29T14:33:57.468Z,100348.56
2023-04-29T14:36:24.319Z,100349.81
2023-04-29T14:38:51.608Z,100360.38
2023-04-29T14:41:18.408Z,100364.00
2023-04-29T14:43:46.135Z,100355.19
2023-04-29T14:46:13.184Z,100363.84
2023-04-29T14:48:41.535Z,100361.59
2023-04-29T14:51:08.558Z,100351.31
2023-04-29T14:53:35.494Z,100360.75
2023-04-29T14:56:03.903Z,100365.59
2023-04-29T14:58:30.985Z,100363.81
2023-04-29T15:00:57.622Z,100370.81
2023-04-29T15:03:25.090Z,100367.00
2023-04-29T15:05:52.175Z,100373.94
2023-04-29T15:08:19.863Z,100374.53
2023-04-29T15:10:47.565Z,100379.38
2023-04-29T15:13:14.420Z,100378.44
2023-04-29T15:15:42.191Z,100376.69
2023-04-29T15:18:09.167Z,100376.50
2023-04-29T15:20:37.923Z,100380.53
2023-04-29T15:23:05.692Z,100381.41
2023-04-29T15:25:34.849Z,100393.69
2023-04-29T15:28:03.823Z,100395.88
2023-04-29T15:30:31.181Z,100396.09
2023-04-29T15:32:57.856Z,100392.13
2023-04-29T15:35:25.176Z,100393.31
2023-04-29T15:37:51.792Z,100392.91
2023-04-29T15:40:19.004Z,100391.56
2023-04-29T15:42:45.692Z,100397.19
2023-04-29T15:45:13.063Z,100407.84
2023-04-29T15:47:39.795Z,100400.91
2023-04-29T15:50:07.851Z,100401.00
2023-04-29T15:52:34.437Z,100407.47
2023-04-29T15:55:01.625Z,100414.75
2023-04-29T15:57:28.290Z,100406.09
2023-04-29T15:59:55.771Z,100416.81
2023-04-29T16:02:22.624Z,100406.09
2023-04-29T16:04:49.883Z,100414.16
2023-04-29T16:07:17.660Z,100413.53
2023-04-29T16:09:44.977Z,100412.81
2023-04-29T16:12:13.030Z,100411.16
2023-04-29T16:14:40.266Z,100409.66
2023-04-29T16:17:07.171Z,100408.47
2023-04-29T16:19:36.877Z,100402.78
2023-04-29T16:22:04.425Z,100404.16
2023-04-29T16:24:31.698Z,100403.13
2023-04-29T16:26:58.962Z,100414.91
2023-04-29T16:29:26.545Z,100412.50
2023-04-29T16:31:53.269Z,100415.28
2023-04-29T16:34:20.734Z,100421.38
2023-04-29T16:36:47.316Z,100419.25
2023-04-29T16:39:14.684Z,100424.78
2023-04-29T16:41:41.619Z,100426.66
2023-04-29T16:44:09.237Z,100432.09
2023-04-29T16:46:36.143Z,100432.19
2023-04-29T16:49:03.533Z,100435.97
2023-04-29T16:51:30.194Z,100441.31
2023-04-29T16:53:57.426Z,100434.31
2023-04-29T16:56:24.031Z,100442.00
2023-04-29T16:58:51.441Z,100436.00
2023-04-29T17:01:20.957Z,100438.78
2023-04-29T17:03:48.677Z,100445.88
2023-04-29T17:06:16.046Z,100437.91
2023-04-29T17:08:44.757Z,100442.41
2023-04-29T17:11:11.626Z,100441.59
2023-04-29T17:13:38.873Z,100451.69
2023-04-29T17:16:06.313Z,100450.28
2023-04-29T17:18:33.631Z,100446.84
2023-04-29T17:21:00.254Z,100450.50
2023-04-29T17:23:27.768Z,100445.19
2023-04-29T17:25:55.379Z,100454.19
2023-04-29T17:28:22.553Z,100451.66
2023-04-29T17:30:49.707Z,100450.06
2023-04-29T17:33:17.877Z,100461.75
2023-04-29T17:35:45.231Z,100452.19
2023-04-29T17:38:12.610Z,100455.09
2023-04-29T17:40:39.320Z,100456.97
2023-04-29T17:43:06.558Z,100451.78
2023-04-29T17:45:33.288Z,100453.66
2023-04-29T17:48:00.872Z,100452.06
2023-04-29T17:50:27.725Z,100456.69
2023-04-29T17:52:55.000Z,100467.50
2023-04-29T17:55:21.763Z,100467.59
2023-04-29T17:57:49.063Z,100468.56
2023-04-29T18:00:16.242Z,100466.84
2023-04-29T18:02:43.589Z,100470.59
2023-04-29T18:05:10.361Z,100465.22
2023-04-29T18:07:37.270Z,100468.06
2023-04-29T18:10:05.787Z,100469.13
2023-04-29T18:12:33.378Z,100471.31
2023-04-29T18:15:00.677Z,100472.56
2023-04-29T18:17:27.939Z,100474.47
2023-04-29T18:19:54.719Z,100468.56
2023-04-29T18:22:22.266Z,100475.03
2023-04-29T18:24:49.626Z,100473.59
2023-04-29T18:27:16.883Z,100470.22
2023-04-29T18:29:44.936Z,100481.13
2023-04-29T18:32:12.229Z,100479.59
2023-04-29T18:34:38.927Z,100478.97
2023-04-29T18:37:06.244Z,100474.88
2023-04-29T18:39:32.951Z,100482.28
2023-04-29T18:42:00.593Z,100477.22
2023-04-29T18:44:28.048Z,100480.22
2023-04-29T18:46:55.438Z,100486.78
2023-04-29T18:49:22.000Z,100483.59
2023-04-29T18:51:50.041Z,100492.81
2023-04-29T18:54:19.845Z,100498.41
2023-04-29T18:56:49.216Z,100503.13
2023-04-29T18:59:19.198Z,100501.66
2023-04-29T19:01:48.186Z,100501.91
2023-04-29T19:04:15.404Z,100508.41
2023-04-29T19:06:43.173Z,100514.03
2023-04-29T19:09:11.080Z,100519.56
2023-04-29T19:11:38.421Z,100526.91
2023-04-29T19:14:05.840Z,100535.16
2023-04-29T19:16:36.195Z,100533.66
2023-04-29T19:19:04.171Z,100539.19
2023-04-29T19:21:33.397Z,100549.19
2023-04-29T19:24:00.335Z,100552.94
2023-04-29T19:26:27.664Z,100548.72
2023-04-29T19:28:54.341Z,100550.69
2023-04-29T19:31:21.889Z,100551.84
2023-04-29T19:33:48.681Z,100550.16
2023-04-29T19:36:15.917Z,100559.25
2023-04-29T19:38:42.553Z,100556.78
2023-04-29T19:41:10.307Z,100555.28
2023-04-29T19:43:36.896Z,100558.13
2023-04-29T19:46:04.089Z,100554.75
2023-04-29T19:48:30.864Z,100554.06
2023-04-29T19:50:59.884Z,100573.81
2023-04-29T19:53:27.417Z,100560.72
2023-04-29T19:55:54.629Z,100564.41
2023-04-29T19:58:21.284Z,100561.03
2023-04-29T20:00:48.816Z,100563.00
2023-04-29T20:03:15.867Z,100562.31
2023-04-29T20:05:43.582Z,100558.06
2023-04-29T20:08:10.192Z,100562.63
2023-04-29T20:10:37.136Z,100573.50
2023-04-29T20:13:03.692Z,100565.59
2023-04-29T20:15:31.046Z,100570.22
2023-04-29T20:17:58.125Z,100574.81
2023-04-29T20:20:26.066Z,100578.47
2023-04-29T20:22:52.786Z,100583.13
2023-04-29T20:25:20.809Z,100577.09
2023-04-29T20:27:47.368Z,100585.31
